createdAt,value
2022-11-14T00:00:08.085Z,49.79
2022-11-14T00:01:08.095Z,47.86
2022-11-14T00:02:08.061Z,47.53
2022-11-14T00:03:08.129Z,47.86
2022-11-14T00:04:08.050Z,47.86
2022-11-14T00:05:08.050Z,48.34
2022-11-14T00:06:08.019Z,47.21
2022-11-14T00:07:08.009Z,48.18
2022-11-14T00:08:07.984Z,49.31
2022-11-14T00:09:07.975Z,48.34
2022-11-14T00:10:07.956Z,47.86
2022-11-14T00:11:08.904Z,48.18
2022-11-14T00:12:07.925Z,48.18
2022-11-14T00:13:07.922Z,48.34
2022-11-14T00:14:07.907Z,48.02
2022-11-14T00:15:07.908Z,48.02
2022-11-14T00:16:07.896Z,48.18
2022-11-14T00:17:07.875Z,51.40
2022-11-14T00:18:07.851Z,47.86
2022-11-14T00:19:07.857Z,47.70
2022-11-14T00:20:07.827Z,47.86
2022-11-14T00:21:07.816Z,48.34
2022-11-14T00:22:07.796Z,48.02
2022-11-14T00:23:07.807Z,48.18
2022-11-14T00:24:08.044Z,48.02
2022-11-14T00:25:07.774Z,48.18
2022-11-14T00:26:07.747Z,48.02
2022-11-14T00:27:07.741Z,47.86
2022-11-14T00:28:07.748Z,48.18
2022-11-14T00:29:07.709Z,48.18
2022-11-14T00:30:07.738Z,47.86
2022-11-14T00:31:07.690Z,48.18
2022-11-14T00:32:07.694Z,48.50
2022-11-14T00:33:07.660Z,47.53
2022-11-14T00:34:07.660Z,47.53
2022-11-14T00:35:08.580Z,48.50
2022-11-14T00:36:07.638Z,48.18
2022-11-14T00:37:08.590Z,47.86
2022-11-14T00:38:07.620Z,48.02
2022-11-14T00:39:07.592Z,48.18
2022-11-14T00:40:07.598Z,48.50
2022-11-14T00:41:07.560Z,48.18
2022-11-14T00:42:07.550Z,48.66
2022-11-14T00:43:07.541Z,47.86
2022-11-14T00:44:07.532Z,49.63
2022-11-14T00:45:07.515Z,47.86
2022-11-14T00:46:07.489Z,48.34
2022-11-14T00:47:07.494Z,47.86
2022-11-14T00:48:07.478Z,48.50
2022-11-14T00:49:07.501Z,48.02
2022-11-14T00:50:07.440Z,48.66
2022-11-14T00:51:07.441Z,48.34
2022-11-14T00:52:07.431Z,47.70
2022-11-14T00:53:07.410Z,48.18
2022-11-14T00:54:07.410Z,48.66
2022-11-14T00:55:07.393Z,51.40
2022-11-14T00:56:07.371Z,47.86
2022-11-14T00:57:07.361Z,47.53
2022-11-14T00:58:07.351Z,47.53
2022-11-14T00:59:07.342Z,48.02
2022-11-14T01:00:07.311Z,47.37
2022-11-14T01:01:07.435Z,47.37
2022-11-14T01:02:07.302Z,48.18
2022-11-14T01:03:07.293Z,47.37
2022-11-14T01:04:07.271Z,48.18
2022-11-14T01:05:07.271Z,47.37
2022-11-14T01:06:07.243Z,48.02
2022-11-14T01:07:07.235Z,48.02
2022-11-14T01:08:07.222Z,48.18
2022-11-14T01:09:07.284Z,48.34
2022-11-14T01:10:07.201Z,48.18
2022-11-14T01:11:07.184Z,48.18
2022-11-14T01:12:07.173Z,48.18
2022-11-14T01:13:07.175Z,48.50
2022-11-14T01:14:07.168Z,48.34
2022-11-14T01:15:07.135Z,48.18
2022-11-14T01:16:07.136Z,48.18
2022-11-14T01:17:07.116Z,48.02
2022-11-14T01:18:07.095Z,48.66
2022-11-14T01:19:07.274Z,47.86
2022-11-14T01:20:07.086Z,48.18
2022-11-14T01:21:07.071Z,48.18
2022-11-14T01:22:07.046Z,48.02
2022-11-14T01:23:07.053Z,46.41
2022-11-14T01:24:07.036Z,47.70
2022-11-14T01:25:07.009Z,48.18
2022-11-14T01:26:06.995Z,49.63
2022-11-14T01:27:06.986Z,47.37
2022-11-14T01:28:06.976Z,47.70
2022-11-14T01:29:07.003Z,47.86
2022-11-14T01:30:06.955Z,47.86
2022-11-14T01:31:06.943Z,47.21
2022-11-14T01:32:06.920Z,47.70
2022-11-14T01:33:06.917Z,48.02
2022-11-14T01:34:07.139Z,48.18
2022-11-14T01:35:06.894Z,47.86
2022-11-14T01:36:06.878Z,48.34
2022-11-14T01:37:06.863Z,48.18
2022-11-14T01:38:06.868Z,47.86
2022-11-14T01:39:06.837Z,47.86
2022-11-14T01:40:06.819Z,48.02
2022-11-14T01:41:06.962Z,47.70
2022-11-14T01:42:06.797Z,48.18
2022-11-14T01:43:06.806Z,47.37
2022-11-14T01:44:06.768Z,48.18
2022-11-14T01:45:06.769Z,47.70
2022-11-14T01:46:06.748Z,47.86
2022-11-14T01:47:06.739Z,47.37
2022-11-14T01:48:06.725Z,46.73
2022-11-14T01:49:06.739Z,48.02
2022-11-14T01:50:06.710Z,47.37
2022-11-14T01:51:06.692Z,47.05
2022-11-14T01:52:06.679Z,47.86
2022-11-14T01:53:06.668Z,47.70
2022-11-14T01:54:06.661Z,47.86
2022-11-14T01:55:06.637Z,48.02
2022-11-14T01:56:06.621Z,48.50
2022-11-14T01:57:06.622Z,47.37
2022-11-14T01:58:06.600Z,47.21
2022-11-14T01:59:06.900Z,47.53
2022-11-14T02:00:06.591Z,48.02
2022-11-14T02:01:06.638Z,47.86
2022-11-14T02:02:06.573Z,47.70
2022-11-14T02:03:06.541Z,47.86
2022-11-14T02:04:06.928Z,47.70
2022-11-14T02:05:06.511Z,47.86
2022-11-14T02:06:06.519Z,48.34
2022-11-14T02:07:06.514Z,47.70
2022-11-14T02:08:06.487Z,47.70
2022-11-14T02:09:06.465Z,48.18
2022-11-14T02:10:06.463Z,48.18
2022-11-14T02:11:06.432Z,49.63
2022-11-14T02:12:06.426Z,48.02
2022-11-14T02:13:06.423Z,47.37
2022-11-14T02:14:06.402Z,48.02
2022-11-14T02:15:06.392Z,47.86
2022-11-14T02:16:06.383Z,48.18
2022-11-14T02:18:06.354Z,47.86
2022-11-14T02:19:06.422Z,47.37
2022-11-14T02:20:06.314Z,48.02
2022-11-14T02:21:06.321Z,47.86
2022-11-14T02:22:06.303Z,47.86
2022-11-14T02:23:06.298Z,48.02
2022-11-14T02:24:06.280Z,48.02
2022-11-14T02:25:06.265Z,48.18
2022-11-14T02:26:06.267Z,47.86
2022-11-14T02:27:06.238Z,47.86
2022-11-14T02:28:06.225Z,46.57
2022-11-14T02:29:06.224Z,48.18
2022-11-14T02:30:06.195Z,47.53
2022-11-14T02:31:06.186Z,48.02
2022-11-14T02:32:10.470Z,48.98
2022-11-14T02:33:11.058Z,56.40
2022-11-14T02:34:07.166Z,47.70
2022-11-14T02:35:06.145Z,48.18
2022-11-14T02:36:06.117Z,48.18
2022-11-14T02:37:06.115Z,48.02
2022-11-14T02:38:06.096Z,47.37
2022-11-14T02:39:06.099Z,47.70
2022-11-14T02:40:06.084Z,46.89
2022-11-14T02:41:06.076Z,48.66
2022-11-14T02:42:06.047Z,47.05
2022-11-14T02:43:06.057Z,47.86
2022-11-14T02:44:06.258Z,48.34
2022-11-14T02:45:05.998Z,48.82
2022-11-14T02:46:06.094Z,47.21
2022-11-14T02:47:05.997Z,47.86
2022-11-14T02:48:06.246Z,47.37
2022-11-14T02:49:05.947Z,48.02
2022-11-14T02:50:05.957Z,47.70
2022-11-14T02:51:05.928Z,48.18
2022-11-14T02:52:05.922Z,48.02
2022-11-14T02:53:05.917Z,47.70
2022-11-14T02:54:05.878Z,48.18
2022-11-14T02:55:05.880Z,47.86
2022-11-14T02:56:05.866Z,48.02
2022-11-14T02:57:05.850Z,48.18
2022-11-14T02:58:05.838Z,48.02
2022-11-14T02:59:05.859Z,48.34
2022-11-14T03:00:09.949Z,47.86
2022-11-14T03:01:20.397Z,48.02
2022-11-14T03:02:06.822Z,48.34
2022-11-14T03:03:05.793Z,48.50
2022-11-14T03:04:05.754Z,48.18
2022-11-14T03:05:05.754Z,48.18
2022-11-14T03:06:05.730Z,48.50
2022-11-14T03:07:05.772Z,48.34
2022-11-14T03:08:05.710Z,47.53
2022-11-14T03:09:06.643Z,48.18
2022-11-14T03:10:05.948Z,50.60
2022-11-14T03:11:06.618Z,48.02
2022-11-14T03:12:05.651Z,47.86
2022-11-14T03:13:05.661Z,48.18
2022-11-14T03:14:05.889Z,47.86
2022-11-14T03:15:05.634Z,47.37
2022-11-14T03:16:05.602Z,48.34
2022-11-14T03:17:05.593Z,47.86
2022-11-14T03:18:05.620Z,48.18
2022-11-14T03:19:05.574Z,47.37
2022-11-14T03:20:05.617Z,48.18
2022-11-14T03:21:05.545Z,47.37
2022-11-14T03:22:05.535Z,47.86
2022-11-14T03:23:05.523Z,47.86
2022-11-14T03:24:05.503Z,47.37
2022-11-14T03:25:05.491Z,47.70
2022-11-14T03:26:05.482Z,47.86
2022-11-14T03:27:05.464Z,48.34
2022-11-14T03:28:05.464Z,48.34
2022-11-14T03:29:05.451Z,47.86
2022-11-14T03:30:05.433Z,51.08
2022-11-14T03:31:05.428Z,48.18
2022-11-14T03:32:05.414Z,48.18
2022-11-14T03:33:05.412Z,48.18
2022-11-14T03:34:05.385Z,48.18
2022-11-14T03:35:05.370Z,48.34
2022-11-14T03:36:05.354Z,47.05
2022-11-14T03:37:05.345Z,47.05
2022-11-14T03:38:05.344Z,47.86
2022-11-14T03:39:05.327Z,48.18
2022-11-14T03:40:05.318Z,47.86
2022-11-14T03:41:05.294Z,48.66
2022-11-14T03:42:05.304Z,47.86
2022-11-14T03:43:05.285Z,47.86
2022-11-14T03:44:05.261Z,47.86
2022-11-14T03:45:05.240Z,48.18
2022-11-14T03:46:05.233Z,48.02
2022-11-14T03:47:05.217Z,48.34
2022-11-14T03:48:05.214Z,48.18
2022-11-14T03:49:05.195Z,48.66
2022-11-14T03:50:05.187Z,48.18
2022-11-14T03:51:05.172Z,47.70
2022-11-14T03:52:05.165Z,48.18
2022-11-14T03:53:05.148Z,48.02
2022-11-14T03:54:05.129Z,48.18
2022-11-14T03:55:05.118Z,48.50
2022-11-14T03:56:05.119Z,47.86
2022-11-14T03:57:05.092Z,47.70
2022-11-14T03:58:05.123Z,48.18
2022-11-14T03:59:05.060Z,49.79
2022-11-14T04:00:05.060Z,48.18
2022-11-14T04:01:05.112Z,48.02
2022-11-14T04:02:05.039Z,47.21
2022-11-14T04:03:05.026Z,47.86
2022-11-14T04:04:05.001Z,47.86
2022-11-14T04:05:04.992Z,48.02
2022-11-14T04:06:04.981Z,48.02
2022-11-14T04:07:05.033Z,48.18
2022-11-14T04:08:04.960Z,48.02
2022-11-14T04:09:04.941Z,49.15
2022-11-14T04:10:04.932Z,47.70
2022-11-14T04:11:04.917Z,48.18
2022-11-14T04:12:04.904Z,48.18
2022-11-14T04:13:04.900Z,48.18
2022-11-14T04:14:04.892Z,47.37
2022-11-14T04:15:04.877Z,48.50
2022-11-14T04:16:05.822Z,47.37
2022-11-14T04:17:04.846Z,48.18
2022-11-14T04:18:04.842Z,48.18
2022-11-14T04:19:04.808Z,47.86
2022-11-14T04:20:04.815Z,48.02
2022-11-14T04:21:04.792Z,47.86
2022-11-14T04:22:04.784Z,48.34
2022-11-14T04:23:04.782Z,50.11
2022-11-14T04:24:08.494Z,48.18
2022-11-14T04:25:05.735Z,48.34
2022-11-14T04:26:04.732Z,50.43
2022-11-14T04:27:04.732Z,48.34
2022-11-14T04:28:04.703Z,48.50
2022-11-14T04:29:04.683Z,60.42
2022-11-14T04:30:04.715Z,49.15
2022-11-14T04:31:04.665Z,56.24
2022-11-14T04:32:04.675Z,48.34
2022-11-14T04:33:04.635Z,54.30
2022-11-14T04:34:04.637Z,48.98
2022-11-14T04:35:04.625Z,49.63
2022-11-14T04:36:04.616Z,49.15
2022-11-14T04:37:04.586Z,48.18
2022-11-14T04:38:04.646Z,55.43
2022-11-14T04:39:04.566Z,47.86
2022-11-14T04:40:04.573Z,47.86
2022-11-14T04:41:04.534Z,48.18
2022-11-14T04:42:04.549Z,49.31
2022-11-14T04:43:04.536Z,47.86
2022-11-14T04:44:04.505Z,48.34
2022-11-14T04:45:04.566Z,48.18
2022-11-14T04:46:04.497Z,48.82
2022-11-14T04:47:04.471Z,48.34
2022-11-14T04:48:04.507Z,59.78
2022-11-14T04:49:04.445Z,48.34
2022-11-14T04:50:04.427Z,48.02
2022-11-14T04:51:04.423Z,48.18
2022-11-14T04:52:04.417Z,49.79
2022-11-14T04:53:04.392Z,48.34
2022-11-14T04:54:04.378Z,48.18
2022-11-14T04:55:04.368Z,50.43
2022-11-14T04:56:04.365Z,48.66
2022-11-14T04:57:04.367Z,47.53
2022-11-14T04:58:04.329Z,53.01
2022-11-14T04:59:04.315Z,48.50
2022-11-14T05:00:04.307Z,48.50
2022-11-14T05:01:04.323Z,48.50
2022-11-14T05:02:04.295Z,47.37
2022-11-14T05:03:04.268Z,48.34
2022-11-14T05:04:04.268Z,48.18
2022-11-14T05:05:04.248Z,47.86
2022-11-14T05:06:04.239Z,48.18
2022-11-14T05:07:04.297Z,55.59
2022-11-14T05:08:04.217Z,47.86
2022-11-14T05:09:04.422Z,48.18
2022-11-14T05:10:04.191Z,48.18
2022-11-14T05:11:04.169Z,48.02
2022-11-14T05:12:04.169Z,48.18
2022-11-14T05:13:04.369Z,48.34
2022-11-14T05:14:04.132Z,48.34
2022-11-14T05:15:04.122Z,50.27
2022-11-14T05:16:04.101Z,48.66
2022-11-14T05:17:04.112Z,48.98
2022-11-14T05:18:04.103Z,52.05
2022-11-14T05:19:04.062Z,48.18
2022-11-14T05:20:04.052Z,58.97
2022-11-14T05:21:04.051Z,48.50
2022-11-14T05:22:04.040Z,48.50
2022-11-14T05:23:04.012Z,48.34
2022-11-14T05:24:04.001Z,48.66
2022-11-14T05:25:03.996Z,48.34
2022-11-14T05:26:03.993Z,62.84
2022-11-14T05:27:03.966Z,47.86
2022-11-14T05:28:03.956Z,48.18
2022-11-14T05:29:03.957Z,48.02
2022-11-14T05:30:03.921Z,48.34
2022-11-14T05:31:03.918Z,48.18
2022-11-14T05:32:03.913Z,50.11
2022-11-14T05:33:03.893Z,61.55
2022-11-14T05:34:04.113Z,49.95
2022-11-14T05:35:03.874Z,57.69
2022-11-14T05:36:03.854Z,48.18
2022-11-14T05:37:03.882Z,48.66
2022-11-14T05:38:03.823Z,48.50
2022-11-14T05:39:03.818Z,66.06
2022-11-14T05:40:04.830Z,48.50
2022-11-14T05:41:03.790Z,48.66
2022-11-14T05:42:03.801Z,56.24
2022-11-14T05:43:03.770Z,68.16
2022-11-14T05:44:03.755Z,48.18
2022-11-14T05:45:03.746Z,48.18
2022-11-14T05:46:03.729Z,48.66
2022-11-14T05:47:04.665Z,48.18
2022-11-14T05:48:03.713Z,61.71
2022-11-14T05:49:03.690Z,55.59
2022-11-14T05:50:03.693Z,48.66
2022-11-14T05:51:03.673Z,48.18
2022-11-14T05:52:03.673Z,48.66
2022-11-14T05:53:03.637Z,48.34
2022-11-14T05:54:03.626Z,47.86
2022-11-14T05:55:03.607Z,48.02
2022-11-14T05:56:03.616Z,48.34
2022-11-14T05:57:03.602Z,48.18
2022-11-14T05:58:03.588Z,48.34
2022-11-14T05:59:03.797Z,51.40
2022-11-14T06:00:03.567Z,48.98
2022-11-14T06:01:03.537Z,48.18
2022-11-14T06:02:03.602Z,48.82
2022-11-14T06:03:03.517Z,48.66
2022-11-14T06:04:03.507Z,48.02
2022-11-14T06:05:03.487Z,48.18
2022-11-14T06:06:03.481Z,49.79
2022-11-14T06:07:03.559Z,48.34
2022-11-14T06:08:03.451Z,48.18
2022-11-14T06:09:03.438Z,48.02
2022-11-14T06:10:03.439Z,48.18
2022-11-14T06:11:03.408Z,47.86
2022-11-14T06:12:03.415Z,48.34
2022-11-14T06:13:03.391Z,47.86
2022-11-14T06:14:08.178Z,48.50
2022-11-14T06:15:04.369Z,47.70
2022-11-14T06:16:03.392Z,48.18
2022-11-14T06:17:03.349Z,49.79
2022-11-14T06:18:03.337Z,48.66
2022-11-14T06:19:03.310Z,48.50
2022-11-14T06:20:03.309Z,48.18
2022-11-14T06:21:03.300Z,49.47
2022-11-14T06:22:03.304Z,48.02
2022-11-14T06:23:03.397Z,48.34
2022-11-14T06:24:03.271Z,50.76
2022-11-14T06:25:03.234Z,48.66
2022-11-14T06:26:03.291Z,49.47
2022-11-14T06:27:03.271Z,48.82
2022-11-14T06:28:03.221Z,50.27
2022-11-14T06:29:03.212Z,48.18
2022-11-14T06:30:03.192Z,48.34
2022-11-14T06:31:03.398Z,48.66
2022-11-14T06:32:03.210Z,48.34
2022-11-14T06:33:03.131Z,48.18
2022-11-14T06:34:03.130Z,50.76
2022-11-14T06:35:03.111Z,48.82
2022-11-14T06:36:03.103Z,48.34
2022-11-14T06:37:03.093Z,48.18
2022-11-14T06:38:03.080Z,47.86
2022-11-14T06:39:03.063Z,48.50
2022-11-14T06:40:03.052Z,48.34
2022-11-14T06:41:03.033Z,52.37
2022-11-14T06:42:03.041Z,48.50
2022-11-14T06:43:03.014Z,48.98
2022-11-14T06:44:03.007Z,48.18
2022-11-14T06:45:02.990Z,47.86
2022-11-14T06:46:02.985Z,48.02
2022-11-14T06:47:03.002Z,48.18
2022-11-14T06:48:02.955Z,48.02
2022-11-14T06:49:02.936Z,47.70
2022-11-14T06:50:03.882Z,48.34
2022-11-14T06:51:02.913Z,48.50
2022-11-14T06:52:02.915Z,53.01
2022-11-14T06:53:02.893Z,48.18
2022-11-14T06:54:02.884Z,52.53
2022-11-14T06:55:02.868Z,48.34
2022-11-14T06:56:02.850Z,47.86
2022-11-14T06:57:02.844Z,47.70
2022-11-14T06:58:02.826Z,48.18
2022-11-14T06:59:02.828Z,48.02
2022-11-14T07:00:02.804Z,48.34
2022-11-14T07:01:02.801Z,48.98
2022-11-14T07:02:02.795Z,48.02
2022-11-14T07:03:02.778Z,48.66
2022-11-14T07:04:02.758Z,48.34
2022-11-14T07:05:02.737Z,47.53
2022-11-14T07:06:02.758Z,48.02
2022-11-14T07:07:02.756Z,47.70
2022-11-14T07:08:02.698Z,48.66
2022-11-14T07:09:02.689Z,49.15
2022-11-14T07:10:02.677Z,47.37
2022-11-14T07:11:02.659Z,49.47
2022-11-14T07:12:02.657Z,48.02
2022-11-14T07:13:02.638Z,47.21
2022-11-14T07:14:02.631Z,47.21
2022-11-14T07:15:02.617Z,50.92
2022-11-14T07:16:02.597Z,48.18
2022-11-14T07:17:02.601Z,48.18
2022-11-14T07:18:02.583Z,48.18
2022-11-14T07:19:02.558Z,48.18
2022-11-14T07:20:02.604Z,49.95
2022-11-14T07:21:02.559Z,55.11
2022-11-14T07:22:02.542Z,48.18
2022-11-14T07:23:02.514Z,48.34
2022-11-14T07:24:02.499Z,52.85
2022-11-14T07:25:02.498Z,48.18
2022-11-14T07:26:02.467Z,48.18
2022-11-14T07:27:02.469Z,48.98
2022-11-14T07:28:02.450Z,48.50
2022-11-14T07:29:03.040Z,48.18
2022-11-14T07:30:02.420Z,50.76
2022-11-14T07:31:02.402Z,48.66
2022-11-14T07:32:02.433Z,48.34
2022-11-14T07:33:02.380Z,48.02
2022-11-14T07:34:02.370Z,50.11
2022-11-14T07:35:03.026Z,53.66
2022-11-14T07:36:02.343Z,47.53
2022-11-14T07:37:02.351Z,48.98
2022-11-14T07:38:02.320Z,49.31
2022-11-14T07:39:02.302Z,49.15
2022-11-14T07:40:02.281Z,51.40
2022-11-14T07:41:02.282Z,48.18
2022-11-14T07:42:02.279Z,47.70
2022-11-14T07:43:02.264Z,51.40
2022-11-14T07:44:02.231Z,47.21
2022-11-14T07:45:02.221Z,51.08
2022-11-14T07:46:03.152Z,48.34
2022-11-14T07:47:02.202Z,47.37
2022-11-14T07:48:02.182Z,46.89
2022-11-14T07:49:02.173Z,48.18
2022-11-14T07:50:02.162Z,49.15
2022-11-14T07:51:02.148Z,47.37
2022-11-14T07:52:02.145Z,47.05
2022-11-14T07:53:02.124Z,47.53
2022-11-14T07:54:02.104Z,46.57
2022-11-14T07:55:02.105Z,46.89
2022-11-14T07:56:02.093Z,47.21
2022-11-14T07:57:02.084Z,47.21
2022-11-14T07:58:02.064Z,47.53
2022-11-14T07:59:02.045Z,47.21
2022-11-14T08:00:02.024Z,47.37
2022-11-14T08:01:02.116Z,45.60
2022-11-14T08:02:02.007Z,46.08
2022-11-14T08:03:01.989Z,47.86
2022-11-14T08:04:01.966Z,46.57
2022-11-14T08:05:01.965Z,45.76
2022-11-14T08:06:01.945Z,47.21
2022-11-14T08:07:01.990Z,46.89
2022-11-14T08:08:01.921Z,50.60
2022-11-14T08:09:01.908Z,47.53
2022-11-14T08:10:01.886Z,47.21
2022-11-14T08:11:01.886Z,47.21
2022-11-14T08:12:02.127Z,46.89
2022-11-14T08:13:29.804Z,46.73
2022-11-14T08:14:02.852Z,46.73
2022-11-14T08:15:01.866Z,46.25
2022-11-14T08:16:01.810Z,47.86
2022-11-14T08:17:01.820Z,47.21
2022-11-14T08:18:01.778Z,46.41
2022-11-14T08:19:01.783Z,46.89
2022-11-14T08:20:01.758Z,48.02
2022-11-14T08:21:01.750Z,47.53
2022-11-14T08:22:01.795Z,45.44
2022-11-14T08:23:01.746Z,48.02
2022-11-14T08:24:01.708Z,41.09
2022-11-14T08:25:01.693Z,46.41
2022-11-14T08:26:01.681Z,41.57
2022-11-14T08:27:01.709Z,47.21
2022-11-14T08:28:01.678Z,47.53
2022-11-14T08:29:01.660Z,45.44
2022-11-14T08:30:01.629Z,45.92
2022-11-14T08:31:01.651Z,47.21
2022-11-14T08:32:01.662Z,46.08
2022-11-14T08:33:01.599Z,47.37
2022-11-14T08:34:02.532Z,45.12
2022-11-14T08:35:01.582Z,45.76
2022-11-14T08:36:01.550Z,42.86
2022-11-14T08:37:01.562Z,41.57
2022-11-14T08:38:01.520Z,41.89
2022-11-14T08:39:02.261Z,45.76
2022-11-14T08:40:01.500Z,42.86
2022-11-14T08:41:01.521Z,41.25
2022-11-14T08:42:01.481Z,41.89
2022-11-14T08:43:01.461Z,41.25
2022-11-14T08:44:01.682Z,45.92
2022-11-14T08:45:01.433Z,45.76
2022-11-14T08:46:02.232Z,41.25
2022-11-14T08:47:01.422Z,41.89
2022-11-14T08:48:01.393Z,55.27
2022-11-14T08:49:01.383Z,45.44
2022-11-14T08:50:01.364Z,41.57
2022-11-14T08:51:01.529Z,43.67
2022-11-14T08:52:01.343Z,45.92
2022-11-14T08:53:01.335Z,44.15
2022-11-14T08:54:01.313Z,40.28
2022-11-14T08:55:01.303Z,40.93
2022-11-14T08:56:01.300Z,40.77
2022-11-14T08:57:01.284Z,41.41
2022-11-14T08:58:01.263Z,44.31
2022-11-14T08:59:01.251Z,44.96
2022-11-14T09:00:01.259Z,41.41
2022-11-14T09:01:01.236Z,42.38
2022-11-14T09:02:01.225Z,40.28
2022-11-14T09:03:01.309Z,41.89
2022-11-14T09:04:01.277Z,43.02
2022-11-14T09:05:01.233Z,39.64
2022-11-14T09:06:01.167Z,49.15
2022-11-14T09:07:01.155Z,40.61
2022-11-14T09:08:01.127Z,43.02
2022-11-14T09:09:01.119Z,42.54
2022-11-14T09:10:01.117Z,40.61
2022-11-14T09:11:04.829Z,42.38
2022-11-14T09:12:01.087Z,41.57
2022-11-14T09:13:01.068Z,40.12
2022-11-14T09:14:01.058Z,40.93
2022-11-14T09:15:01.068Z,40.93
2022-11-14T09:16:01.027Z,41.57
2022-11-14T09:17:05.678Z,40.93
2022-11-14T09:18:02.006Z,41.57
2022-11-14T09:19:01.109Z,40.44
2022-11-14T09:20:00.968Z,45.60
2022-11-14T09:21:00.975Z,44.31
2022-11-14T09:22:00.959Z,40.93
2022-11-14T09:23:00.968Z,42.70
2022-11-14T09:24:02.090Z,41.73
2022-11-14T09:25:00.926Z,41.25
2022-11-14T09:26:00.902Z,42.86
2022-11-14T09:27:01.851Z,40.12
2022-11-14T09:28:00.860Z,41.09
2022-11-14T09:29:00.850Z,45.60
2022-11-14T09:30:01.813Z,43.67
2022-11-14T09:31:00.830Z,41.57
2022-11-14T09:32:00.833Z,42.06
2022-11-14T09:33:05.674Z,46.41
2022-11-14T09:34:01.783Z,40.61
2022-11-14T09:35:00.781Z,45.12
2022-11-14T09:36:01.708Z,42.38
2022-11-14T09:37:00.874Z,42.70
2022-11-14T09:38:00.728Z,39.96
2022-11-14T09:39:01.673Z,43.67
2022-11-14T09:40:00.693Z,42.38
2022-11-14T09:41:00.684Z,41.41
2022-11-14T09:42:00.673Z,41.89
2022-11-14T09:43:00.668Z,40.93
2022-11-14T09:44:00.641Z,39.96
2022-11-14T09:45:00.639Z,38.99
2022-11-14T09:46:00.623Z,49.15
2022-11-14T09:47:00.618Z,42.38
2022-11-14T09:48:01.559Z,42.38
2022-11-14T09:49:00.575Z,43.67
2022-11-14T09:50:00.575Z,45.92
2022-11-14T09:51:00.555Z,44.79
2022-11-14T09:52:00.546Z,39.96
2022-11-14T09:53:00.530Z,42.38
2022-11-14T09:54:00.513Z,42.22
2022-11-14T09:55:00.496Z,39.96
2022-11-14T09:56:00.485Z,41.89
2022-11-14T09:57:00.499Z,43.67
2022-11-14T09:58:01.404Z,42.70
2022-11-14T09:59:00.437Z,43.67
2022-11-14T10:00:00.427Z,41.57
2022-11-14T10:01:03.751Z,43.67
2022-11-14T10:02:02.489Z,54.30
2022-11-14T10:03:00.405Z,41.09
2022-11-14T10:04:01.320Z,41.09
2022-11-14T10:05:01.345Z,41.25
2022-11-14T10:06:00.382Z,42.38
2022-11-14T10:07:00.461Z,46.73
2022-11-14T10:08:00.320Z,41.57
2022-11-14T10:09:00.308Z,39.48
2022-11-14T10:10:00.301Z,41.09
2022-11-14T10:11:00.300Z,42.06
2022-11-14T10:12:00.279Z,45.44
2022-11-14T10:13:00.279Z,42.22
2022-11-14T10:14:01.190Z,46.25
2022-11-14T10:15:01.461Z,44.47
2022-11-14T10:16:00.212Z,46.08
2022-11-14T10:17:00.211Z,40.44
2022-11-14T10:18:00.181Z,43.18
2022-11-14T10:19:00.181Z,47.05
2022-11-14T10:20:01.109Z,45.44
2022-11-14T10:21:00.142Z,42.86
2022-11-14T10:22:00.133Z,41.73
2022-11-14T10:23:01.529Z,42.54
2022-11-14T10:24:00.104Z,42.70
2022-11-14T10:25:01.060Z,41.73
2022-11-14T10:26:00.875Z,43.99
2022-11-14T10:27:00.083Z,40.44
2022-11-14T10:28:04.982Z,40.93
2022-11-14T10:29:00.045Z,43.02
2022-11-14T10:30:00.974Z,41.89
2022-11-14T10:31:00.022Z,41.57
2022-11-14T10:32:00.016Z,40.28
2022-11-14T10:32:59.995Z,40.61
2022-11-14T10:33:59.976Z,46.89
2022-11-14T10:34:59.965Z,43.51
2022-11-14T10:35:59.938Z,42.54
2022-11-14T10:36:59.946Z,41.57
2022-11-14T10:37:59.913Z,40.93
2022-11-14T10:38:59.906Z,40.93
2022-11-14T10:39:59.900Z,40.93
2022-11-14T10:40:59.879Z,43.83
2022-11-14T10:42:05.993Z,42.22
2022-11-14T10:43:00.859Z,48.02
2022-11-14T10:43:59.827Z,54.46
2022-11-14T10:44:59.859Z,41.41
2022-11-14T10:45:59.813Z,46.57
2022-11-14T10:46:59.809Z,41.09
2022-11-14T10:47:59.777Z,41.89
2022-11-14T10:49:00.482Z,41.25
2022-11-14T10:49:59.752Z,42.22
2022-11-14T10:50:59.750Z,43.18
2022-11-14T10:51:59.767Z,40.28
2022-11-14T10:52:59.740Z,41.89
2022-11-14T10:53:59.701Z,40.77
2022-11-14T10:54:59.701Z,41.89
2022-11-14T10:56:05.144Z,41.41
2022-11-14T10:57:00.692Z,41.89
2022-11-14T10:58:00.592Z,43.83
2022-11-14T10:58:59.639Z,43.67
2022-11-14T10:59:59.626Z,41.09
2022-11-14T11:00:59.668Z,50.11
2022-11-14T11:01:59.602Z,48.34
2022-11-14T11:02:59.592Z,49.95
2022-11-14T11:03:59.647Z,47.86
2022-11-14T11:04:59.581Z,41.41
2022-11-14T11:05:59.544Z,42.06
2022-11-14T11:06:59.594Z,42.38
2022-11-14T11:08:02.914Z,43.51
2022-11-14T11:09:00.582Z,43.99
2022-11-14T11:09:59.486Z,40.93
2022-11-14T11:10:59.475Z,39.48
2022-11-14T11:11:59.464Z,40.44
2022-11-14T11:12:59.488Z,42.22
2022-11-14T11:13:59.435Z,52.85
2022-11-14T11:15:00.383Z,54.30
2022-11-14T11:15:59.414Z,43.83
2022-11-14T11:16:59.406Z,45.92
2022-11-14T11:17:59.385Z,40.93
2022-11-14T11:18:59.377Z,42.54
2022-11-14T11:20:01.727Z,43.34
2022-11-14T11:20:59.419Z,41.25
2022-11-14T11:21:59.360Z,40.93
2022-11-14T11:23:02.328Z,43.83
2022-11-14T11:23:59.306Z,43.18
2022-11-14T11:24:59.298Z,41.25
2022-11-14T11:25:59.285Z,41.09
2022-11-14T11:26:59.288Z,44.63
2022-11-14T11:28:00.218Z,39.48
2022-11-14T11:28:59.248Z,42.54
2022-11-14T11:29:59.228Z,41.73
2022-11-14T11:30:59.230Z,45.76
2022-11-14T11:31:59.218Z,40.93
2022-11-14T11:32:59.289Z,53.01
2022-11-14T11:33:59.171Z,43.51
2022-11-14T11:34:59.161Z,44.96
2022-11-14T11:35:59.157Z,45.44
2022-11-14T11:36:59.141Z,40.93
2022-11-14T11:37:59.205Z,43.99
2022-11-14T11:39:00.066Z,41.57
2022-11-14T11:39:59.130Z,41.73
2022-11-14T11:40:59.094Z,40.28
2022-11-14T11:42:14.269Z,40.93
2022-11-14T11:44:00.321Z,42.70
2022-11-14T11:44:59.040Z,43.18
2022-11-14T11:45:59.023Z,41.73
2022-11-14T11:46:59.034Z,43.18
2022-11-14T11:47:59.005Z,42.22
2022-11-14T11:48:58.964Z,43.99
2022-11-14T11:49:58.955Z,44.63
2022-11-14T11:50:58.935Z,42.86
2022-11-14T11:51:58.940Z,43.18
2022-11-14T11:52:58.925Z,42.22
2022-11-14T11:53:58.907Z,48.02
2022-11-14T11:54:58.895Z,42.06
2022-11-14T11:55:58.886Z,40.28
2022-11-14T11:56:58.884Z,41.25
2022-11-14T11:57:58.877Z,40.12
2022-11-14T11:58:58.833Z,41.89
2022-11-14T11:59:58.827Z,43.34
2022-11-14T12:00:58.804Z,40.61
2022-11-14T12:01:58.832Z,40.77
2022-11-14T12:02:58.871Z,42.70
2022-11-14T12:03:58.807Z,40.61
2022-11-14T12:04:58.749Z,42.22
2022-11-14T12:05:58.741Z,42.06
2022-11-14T12:06:58.803Z,43.99
2022-11-14T12:07:58.949Z,43.83
2022-11-14T12:08:58.698Z,44.15
2022-11-14T12:10:13.890Z,44.47
2022-11-14T12:10:59.675Z,42.70
2022-11-14T12:11:58.681Z,43.67
2022-11-14T12:12:58.650Z,43.51
2022-11-14T12:13:58.641Z,41.73
2022-11-14T12:14:59.600Z,44.79
2022-11-14T12:15:58.607Z,41.25
2022-11-14T12:16:58.611Z,42.38
2022-11-14T12:17:58.592Z,43.67
2022-11-14T12:18:59.523Z,43.99
2022-11-14T12:19:58.562Z,39.96
2022-11-14T12:20:58.567Z,40.44
2022-11-14T12:21:59.161Z,39.16
2022-11-14T12:22:59.473Z,43.51
2022-11-14T12:23:58.506Z,42.06
2022-11-14T12:24:58.496Z,42.22
2022-11-14T12:25:58.474Z,47.70
2022-11-14T12:26:58.477Z,41.73
2022-11-14T12:27:59.460Z,42.86
2022-11-14T12:28:58.428Z,43.18
2022-11-14T12:29:59.373Z,41.73
2022-11-14T12:30:59.393Z,41.73
2022-11-14T12:31:58.426Z,42.70
2022-11-14T12:32:58.437Z,44.96
2022-11-14T12:33:58.367Z,42.38
2022-11-14T12:34:58.384Z,43.34
2022-11-14T12:35:58.368Z,53.01
2022-11-14T12:36:58.378Z,43.99
2022-11-14T12:37:58.318Z,42.22
2022-11-14T12:38:58.301Z,42.06
2022-11-14T12:39:58.290Z,40.93
2022-11-14T12:40:58.289Z,41.25
2022-11-14T12:41:58.273Z,42.70
2022-11-14T12:42:58.250Z,43.51
2022-11-14T12:43:58.265Z,42.38
2022-11-14T12:44:58.245Z,40.44
2022-11-14T12:45:58.207Z,42.38
2022-11-14T12:46:58.210Z,39.96
2022-11-14T12:47:58.180Z,40.61
2022-11-14T12:48:58.171Z,41.73
2022-11-14T12:49:58.154Z,41.09
2022-11-14T12:50:58.143Z,47.05
2022-11-14T12:51:58.133Z,42.38
2022-11-14T12:52:58.113Z,53.82
2022-11-14T12:53:58.121Z,44.47